This is the latest recevied weather packets stored in our database for station/object WY7ATH-2. If no packets are shown the sender has not sent any weather packets the latest 1 day(s).
| Time | Temp. | Humidity | Pressure | Rain* | Wind** | Luminosity | Snow |
|---|---|---|---|---|---|---|---|
| 1778101757 | 4.44° C | - | - | 18.54 mm | 0 m/s | - | - |
| 1778098769 | 1.11° C | - | - | 17.78 mm | 0 m/s | - | - |
| 1778097575 | 1.67° C | - | - | 17.78 mm | 0 m/s | - | - |
| 1778096447 | 4.44° C | - | - | 15.24 mm | 0 m/s | - | - |
| 1778095276 | 3.89° C | - | - | 15.24 mm | 0 m/s | - | - |
| 1778065308 | -6.11° C | - | - | 0 mm | 0 m/s | - | - |
| 1778062320 | -5° C | - | - | 0 mm | 0 m/s | - | - |
| 1778057538 | -5° C | - | - | 0 mm | 0 m/s | - | - |
| 1778056344 | -4.44° C | - | - | 0 mm | 0 m/s | - | - |
| 1778055150 | -4.44° C | - | - | 0 mm | 0 m/s | - | - |
| 1778053356 | -4.44° C | - | - | 0 mm | 0 m/s | - | - |
| 1778050368 | -4.44° C | - | - | 0 mm | 0 m/s | - | - |
| 1778044396 | -3.89° C | - | - | 0 mm | 0 m/s | - | - |
| 1778043799 | -3.89° C | - | - | 0 mm | 0 m/s | - | - |
| 1778042005 | -3.33° C | - | - | 0 mm | 0 m/s | - | - |
| 1778040811 | -3.33° C | - | - | 0 mm | 0 m/s | - | - |
| 1778039614 | -3.89° C | - | - | 0 mm | 0 m/s | - | - |
| 1778037226 | -3.89° C | - | - | 0 mm | 0 m/s | - | - |
| 1778034239 | -3.33° C | - | - | 4.83 mm | 0 m/s | - | - |
| 1778030652 | -2.22° C | - | - | 9.91 mm | 0 m/s | - | - |
| 1778028860 | -2.22° C | - | - | 11.18 mm | 0 m/s | - | - |
| 1778028260 | -2.22° C | - | - | 11.18 mm | 0 m/s | - | - |
| 1778026470 | -1.11° C | - | - | 11.18 mm | 0 m/s | - | - |
| 1778025873 | -1.11° C | - | - | 11.18 mm | 0 m/s | - | - |
| 1778016312 | 0° C | - | - | 15.24 mm | 0 m/s | - | - |
* Rain latest hour (hover to see other rain measurements)
** Current wind speed in m/s (hover to see current wind gust speed)